sensor_id;sensor_type;location;lat;lon;timestamp;temperature;humidity
74617;DHT22;63123;50.906;4.198;2023-03-01T00:01:25;16.70;37.90
74617;DHT22;63123;50.906;4.198;2023-03-01T00:03:51;16.70;37.90
74617;DHT22;63123;50.906;4.198;2023-03-01T00:06:16;16.70;38.10
74617;DHT22;63123;50.906;4.198;2023-03-01T00:08:42;16.70;38.20
74617;DHT22;63123;50.906;4.198;2023-03-01T00:11:12;16.70;38.30
74617;DHT22;63123;50.906;4.198;2023-03-01T00:13:39;16.70;38.50
74617;DHT22;63123;50.906;4.198;2023-03-01T00:16:07;16.70;37.90
74617;DHT22;63123;50.906;4.198;2023-03-01T00:18:33;16.70;38.20
74617;DHT22;63123;50.906;4.198;2023-03-01T00:20:59;16.70;38.10
74617;DHT22;63123;50.906;4.198;2023-03-01T00:23:25;16.70;38.20
74617;DHT22;63123;50.906;4.198;2023-03-01T00:25:50;16.70;38.20
74617;DHT22;63123;50.906;4.198;2023-03-01T00:28:16;16.70;38.10
74617;DHT22;63123;50.906;4.198;2023-03-01T00:30:42;16.70;38.30
74617;DHT22;63123;50.906;4.198;2023-03-01T00:33:08;16.70;38.20
74617;DHT22;63123;50.906;4.198;2023-03-01T00:35:33;16.70;38.30
74617;DHT22;63123;50.906;4.198;2023-03-01T00:37:59;16.70;38.30
74617;DHT22;63123;50.906;4.198;2023-03-01T00:40:26;16.70;38.10
74617;DHT22;63123;50.906;4.198;2023-03-01T00:42:52;16.70;37.90
74617;DHT22;63123;50.906;4.198;2023-03-01T00:45:17;16.70;38.20
74617;DHT22;63123;50.906;4.198;2023-03-01T00:47:43;16.70;38.20
74617;DHT22;63123;50.906;4.198;2023-03-01T00:50:09;16.70;38.00
74617;DHT22;63123;50.906;4.198;2023-03-01T00:52:35;16.70;38.00
74617;DHT22;63123;50.906;4.198;2023-03-01T00:55:01;16.70;38.10
74617;DHT22;63123;50.906;4.198;2023-03-01T00:57:26;16.70;37.90
74617;DHT22;63123;50.906;4.198;2023-03-01T00:59:52;16.70;37.90
74617;DHT22;63123;50.906;4.198;2023-03-01T01:02:18;16.70;38.10
74617;DHT22;63123;50.906;4.198;2023-03-01T01:04:45;16.70;38.00
74617;DHT22;63123;50.906;4.198;2023-03-01T01:07:10;16.70;38.10
74617;DHT22;63123;50.906;4.198;2023-03-01T01:09:36;16.70;38.70
74617;DHT22;63123;50.906;4.198;2023-03-01T01:12:02;16.70;38.00
74617;DHT22;63123;50.906;4.198;2023-03-01T01:14:28;16.70;37.90
74617;DHT22;63123;50.906;4.198;2023-03-01T01:16:53;16.70;38.00
74617;DHT22;63123;50.906;4.198;2023-03-01T01:19:19;16.70;38.10
74617;DHT22;63123;50.906;4.198;2023-03-01T01:21:45;16.70;38.00
74617;DHT22;63123;50.906;4.198;2023-03-01T01:24:11;16.70;38.10
74617;DHT22;63123;50.906;4.198;2023-03-01T01:26:37;16.70;38.00
74617;DHT22;63123;50.906;4.198;2023-03-01T01:29:04;16.70;38.20
74617;DHT22;63123;50.906;4.198;2023-03-01T01:31:30;16.70;37.90
74617;DHT22;63123;50.906;4.198;2023-03-01T01:33:57;16.70;38.20
74617;DHT22;63123;50.906;4.198;2023-03-01T01:36:24;16.70;38.20
74617;DHT22;63123;50.906;4.198;2023-03-01T01:38:50;16.70;38.20
74617;DHT22;63123;50.906;4.198;2023-03-01T01:41:16;16.70;38.00
74617;DHT22;63123;50.906;4.198;2023-03-01T01:43:44;16.70;38.20
74617;DHT22;63123;50.906;4.198;2023-03-01T01:46:21;16.70;37.90
74617;DHT22;63123;50.906;4.198;2023-03-01T01:48:59;16.70;37.90
74617;DHT22;63123;50.906;4.198;2023-03-01T01:51:37;16.70;38.20
74617;DHT22;63123;50.906;4.198;2023-03-01T01:54:10;16.70;38.20
74617;DHT22;63123;50.906;4.198;2023-03-01T01:56:40;16.70;38.30
74617;DHT22;63123;50.906;4.198;2023-03-01T01:59:08;16.70;38.00
74617;DHT22;63123;50.906;4.198;2023-03-01T02:01:34;16.70;37.90
74617;DHT22;63123;50.906;4.198;2023-03-01T02:04:00;16.70;38.00
74617;DHT22;63123;50.906;4.198;2023-03-01T02:06:37;16.70;38.10
74617;DHT22;63123;50.906;4.198;2023-03-01T02:09:13;16.70;37.90
74617;DHT22;63123;50.906;4.198;2023-03-01T02:11:40;16.70;38.00
74617;DHT22;63123;50.906;4.198;2023-03-01T02:14:06;16.70;38.00
74617;DHT22;63123;50.906;4.198;2023-03-01T02:16:32;16.70;38.30
74617;DHT22;63123;50.906;4.198;2023-03-01T02:18:58;16.70;38.20
74617;DHT22;63123;50.906;4.198;2023-03-01T02:21:34;16.70;38.40
74617;DHT22;63123;50.906;4.198;2023-03-01T02:24:55;16.70;38.20
74617;DHT22;63123;50.906;4.198;2023-03-01T02:26:55;16.70;38.00
74617;DHT22;63123;50.906;4.198;2023-03-01T02:29:23;16.70;38.10
74617;DHT22;63123;50.906;4.198;2023-03-01T02:31:49;16.70;38.10
74617;DHT22;63123;50.906;4.198;2023-03-01T02:34:19;16.70;38.00
74617;DHT22;63123;50.906;4.198;2023-03-01T02:36:49;16.70;38.50
74617;DHT22;63123;50.906;4.198;2023-03-01T02:39:28;16.70;38.30
74617;DHT22;63123;50.906;4.198;2023-03-01T02:41:56;16.70;38.00
74617;DHT22;63123;50.906;4.198;2023-03-01T02:44:24;16.70;38.20
74617;DHT22;63123;50.906;4.198;2023-03-01T02:46:55;16.70;38.00
74617;DHT22;63123;50.906;4.198;2023-03-01T02:54:31;16.70;38.20
74617;DHT22;63123;50.906;4.198;2023-03-01T02:56:59;16.70;38.00
74617;DHT22;63123;50.906;4.198;2023-03-01T02:59:29;16.70;38.10
74617;DHT22;63123;50.906;4.198;2023-03-01T03:01:56;16.70;38.20
74617;DHT22;63123;50.906;4.198;2023-03-01T03:04:22;16.70;38.00
74617;DHT22;63123;50.906;4.198;2023-03-01T03:06:49;16.70;38.10
74617;DHT22;63123;50.906;4.198;2023-03-01T03:09:16;16.70;38.40
74617;DHT22;63123;50.906;4.198;2023-03-01T03:11:41;16.70;37.90
74617;DHT22;63123;50.906;4.198;2023-03-01T03:14:09;16.70;38.10
74617;DHT22;63123;50.906;4.198;2023-03-01T03:16:46;16.70;38.40
74617;DHT22;63123;50.906;4.198;2023-03-01T03:19:12;16.70;38.50
74617;DHT22;63123;50.906;4.198;2023-03-01T03:21:39;16.70;38.10
74617;DHT22;63123;50.906;4.198;2023-03-01T03:24:05;16.70;37.80
74617;DHT22;63123;50.906;4.198;2023-03-01T03:26:31;16.70;38.20
74617;DHT22;63123;50.906;4.198;2023-03-01T03:28:56;16.70;38.00
74617;DHT22;63123;50.906;4.198;2023-03-01T03:31:22;16.70;38.00
74617;DHT22;63123;50.906;4.198;2023-03-01T03:33:48;16.70;38.10
74617;DHT22;63123;50.906;4.198;2023-03-01T03:36:18;16.70;38.10
74617;DHT22;63123;50.906;4.198;2023-03-01T03:38:44;16.70;38.20
74617;DHT22;63123;50.906;4.198;2023-03-01T03:41:11;16.70;38.90
74617;DHT22;63123;50.906;4.198;2023-03-01T03:43:39;16.70;38.20
74617;DHT22;63123;50.906;4.198;2023-03-01T03:46:06;16.60;38.20
74617;DHT22;63123;50.906;4.198;2023-03-01T03:48:37;16.70;38.10
74617;DHT22;63123;50.906;4.198;2023-03-01T03:51:03;16.70;37.90
74617;DHT22;63123;50.906;4.198;2023-03-01T03:53:31;16.70;38.10
74617;DHT22;63123;50.906;4.198;2023-03-01T03:55:56;16.70;38.20
74617;DHT22;63123;50.906;4.198;2023-03-01T03:58:24;16.70;38.10
74617;DHT22;63123;50.906;4.198;2023-03-01T04:00:52;16.70;38.30
74617;DHT22;63123;50.906;4.198;2023-03-01T04:03:19;16.70;38.80
74617;DHT22;63123;50.906;4.198;2023-03-01T04:05:45;16.70;38.00
74617;DHT22;63123;50.906;4.198;2023-03-01T04:08:11;16.60;37.80
74617;DHT22;63123;50.906;4.198;2023-03-01T04:10:40;16.70;38.20
74617;DHT22;63123;50.906;4.198;2023-03-01T04:13:06;16.70;38.30
74617;DHT22;63123;50.906;4.198;2023-03-01T04:15:32;16.70;38.10
74617;DHT22;63123;50.906;4.198;2023-03-01T04:17:59;16.70;38.20
74617;DHT22;63123;50.906;4.198;2023-03-01T04:20:27;16.70;38.00
74617;DHT22;63123;50.906;4.198;2023-03-01T04:23:16;16.70;38.30
74617;DHT22;63123;50.906;4.198;2023-03-01T04:25:52;16.70;37.50
74617;DHT22;63123;50.906;4.198;2023-03-01T04:28:21;16.70;38.00
74617;DHT22;63123;50.906;4.198;2023-03-01T04:30:47;16.70;38.00
74617;DHT22;63123;50.906;4.198;2023-03-01T04:33:12;16.70;38.20
74617;DHT22;63123;50.906;4.198;2023-03-01T04:35:38;16.70;38.20
74617;DHT22;63123;50.906;4.198;2023-03-01T04:38:05;16.60;38.10
74617;DHT22;63123;50.906;4.198;2023-03-01T04:40:32;16.70;38.30
74617;DHT22;63123;50.906;4.198;2023-03-01T04:42:57;16.70;38.30
74617;DHT22;63123;50.906;4.198;2023-03-01T04:45:23;16.70;38.00
74617;DHT22;63123;50.906;4.198;2023-03-01T04:47:49;16.70;38.10
74617;DHT22;63123;50.906;4.198;2023-03-01T04:50:18;16.70;38.00
74617;DHT22;63123;50.906;4.198;2023-03-01T04:52:49;16.70;38.00
74617;DHT22;63123;50.906;4.198;2023-03-01T04:55:15;16.70;38.10
74617;DHT22;63123;50.906;4.198;2023-03-01T04:57:40;16.70;38.30
74617;DHT22;63123;50.906;4.198;2023-03-01T05:00:09;16.70;37.90
74617;DHT22;63123;50.906;4.198;2023-03-01T05:02:53;16.70;38.20
74617;DHT22;63123;50.906;4.198;2023-03-01T05:05:28;16.70;37.90
74617;DHT22;63123;50.906;4.198;2023-03-01T05:07:58;16.70;38.10
74617;DHT22;63123;50.906;4.198;2023-03-01T05:10:26;16.70;38.20
74617;DHT22;63123;50.906;4.198;2023-03-01T05:12:52;16.70;38.20
74617;DHT22;63123;50.906;4.198;2023-03-01T05:15:18;16.70;38.10
74617;DHT22;63123;50.906;4.198;2023-03-01T05:17:44;16.70;37.90
74617;DHT22;63123;50.906;4.198;2023-03-01T05:20:10;16.70;37.90
74617;DHT22;63123;50.906;4.198;2023-03-01T05:22:36;16.70;37.80
74617;DHT22;63123;50.906;4.198;2023-03-01T05:25:03;16.70;37.80
74617;DHT22;63123;50.906;4.198;2023-03-01T05:27:29;16.70;37.70
74617;DHT22;63123;50.906;4.198;2023-03-01T05:29:56;16.70;37.90
74617;DHT22;63123;50.906;4.198;2023-03-01T05:32:21;16.70;37.60
74617;DHT22;63123;50.906;4.198;2023-03-01T05:34:47;16.70;37.70
74617;DHT22;63123;50.906;4.198;2023-03-01T05:37:13;16.70;37.80
74617;DHT22;63123;50.906;4.198;2023-03-01T05:39:39;16.70;37.70
74617;DHT22;63123;50.906;4.198;2023-03-01T05:42:04;16.70;37.50
74617;DHT22;63123;50.906;4.198;2023-03-01T05:44:30;16.70;37.60
74617;DHT22;63123;50.906;4.198;2023-03-01T05:46:56;16.70;37.80
74617;DHT22;63123;50.906;4.198;2023-03-01T05:49:22;16.70;38.00
74617;DHT22;63123;50.906;4.198;2023-03-01T05:51:52;16.70;37.70
74617;DHT22;63123;50.906;4.198;2023-03-01T05:54:19;16.70;37.90
74617;DHT22;63123;50.906;4.198;2023-03-01T05:56:45;16.70;37.90
74617;DHT22;63123;50.906;4.198;2023-03-01T05:59:11;16.70;37.70
74617;DHT22;63123;50.906;4.198;2023-03-01T06:01:36;16.70;37.80
74617;DHT22;63123;50.906;4.198;2023-03-01T06:04:03;16.70;38.00
74617;DHT22;63123;50.906;4.198;2023-03-01T06:06:29;16.70;38.00
74617;DHT22;63123;50.906;4.198;2023-03-01T06:08:55;16.70;37.90
74617;DHT22;63123;50.906;4.198;2023-03-01T06:11:21;16.70;38.00
74617;DHT22;63123;50.906;4.198;2023-03-01T06:13:47;16.70;38.10
74617;DHT22;63123;50.906;4.198;2023-03-01T06:16:13;16.70;38.00
74617;DHT22;63123;50.906;4.198;2023-03-01T06:18:39;16.70;38.10
74617;DHT22;63123;50.906;4.198;2023-03-01T06:21:07;16.70;38.20
74617;DHT22;63123;50.906;4.198;2023-03-01T06:23:33;16.70;38.40
74617;DHT22;63123;50.906;4.198;2023-03-01T06:25:59;16.70;38.10
74617;DHT22;63123;50.906;4.198;2023-03-01T06:28:25;16.70;38.40
74617;DHT22;63123;50.906;4.198;2023-03-01T06:30:51;16.70;38.20
74617;DHT22;63123;50.906;4.198;2023-03-01T06:33:18;16.70;38.30
74617;DHT22;63123;50.906;4.198;2023-03-01T06:35:46;16.70;37.80
74617;DHT22;63123;50.906;4.198;2023-03-01T06:38:12;16.70;38.20
74617;DHT22;63123;50.906;4.198;2023-03-01T06:40:40;16.70;38.50
74617;DHT22;63123;50.906;4.198;2023-03-01T06:43:06;16.70;38.10
74617;DHT22;63123;50.906;4.198;2023-03-01T06:45:33;16.70;38.10
74617;DHT22;63123;50.906;4.198;2023-03-01T06:48:05;16.70;38.30
74617;DHT22;63123;50.906;4.198;2023-03-01T06:50:32;16.70;38.30
74617;DHT22;63123;50.906;4.198;2023-03-01T06:52:58;16.70;38.30
74617;DHT22;63123;50.906;4.198;2023-03-01T06:55:24;16.70;38.10
74617;DHT22;63123;50.906;4.198;2023-03-01T06:57:57;16.70;38.30
74617;DHT22;63123;50.906;4.198;2023-03-01T07:00:24;16.60;38.60
74617;DHT22;63123;50.906;4.198;2023-03-01T07:02:50;16.70;38.20
74617;DHT22;63123;50.906;4.198;2023-03-01T07:05:15;16.60;38.20
74617;DHT22;63123;50.906;4.198;2023-03-01T07:07:41;16.70;38.50
74617;DHT22;63123;50.906;4.198;2023-03-01T07:10:07;16.70;38.50
74617;DHT22;63123;50.906;4.198;2023-03-01T07:12:33;16.70;38.30
74617;DHT22;63123;50.906;4.198;2023-03-01T07:14:58;16.70;38.20
74617;DHT22;63123;50.906;4.198;2023-03-01T07:17:24;16.70;38.30
74617;DHT22;63123;50.906;4.198;2023-03-01T07:19:50;16.70;38.20
74617;DHT22;63123;50.906;4.198;2023-03-01T07:22:15;16.70;38.10
74617;DHT22;63123;50.906;4.198;2023-03-01T07:24:42;16.70;38.20
74617;DHT22;63123;50.906;4.198;2023-03-01T07:27:07;16.70;38.10
74617;DHT22;63123;50.906;4.198;2023-03-01T07:29:33;16.70;38.30
74617;DHT22;63123;50.906;4.198;2023-03-01T07:32:02;16.60;38.20
74617;DHT22;63123;50.906;4.198;2023-03-01T07:34:27;16.60;38.20
74617;DHT22;63123;50.906;4.198;2023-03-01T07:36:53;16.70;38.30
74617;DHT22;63123;50.906;4.198;2023-03-01T07:39:18;16.70;38.50
74617;DHT22;63123;50.906;4.198;2023-03-01T07:41:44;16.70;38.60
74617;DHT22;63123;50.906;4.198;2023-03-01T07:44:09;16.70;38.50
74617;DHT22;63123;50.906;4.198;2023-03-01T07:46:37;16.70;38.60
74617;DHT22;63123;50.906;4.198;2023-03-01T07:49:02;16.70;38.70
74617;DHT22;63123;50.906;4.198;2023-03-01T07:51:28;16.70;38.60
74617;DHT22;63123;50.906;4.198;2023-03-01T07:53:53;16.70;38.60
74617;DHT22;63123;50.906;4.198;2023-03-01T07:56:19;16.70;38.50
74617;DHT22;63123;50.906;4.198;2023-03-01T07:58:45;16.70;38.50
74617;DHT22;63123;50.906;4.198;2023-03-01T08:01:14;16.70;38.50
74617;DHT22;63123;50.906;4.198;2023-03-01T08:03:40;16.60;38.60
74617;DHT22;63123;50.906;4.198;2023-03-01T08:06:08;16.70;38.80
74617;DHT22;63123;50.906;4.198;2023-03-01T08:08:34;16.70;38.80
74617;DHT22;63123;50.906;4.198;2023-03-01T08:11:03;16.70;38.80
74617;DHT22;63123;50.906;4.198;2023-03-01T08:13:29;16.70;38.70
74617;DHT22;63123;50.906;4.198;2023-03-01T08:15:54;16.70;38.60
74617;DHT22;63123;50.906;4.198;2023-03-01T08:18:21;16.70;38.60
74617;DHT22;63123;50.906;4.198;2023-03-01T08:20:47;16.70;38.70
74617;DHT22;63123;50.906;4.198;2023-03-01T08:23:12;16.70;38.70
74617;DHT22;63123;50.906;4.198;2023-03-01T08:25:39;16.70;38.70
74617;DHT22;63123;50.906;4.198;2023-03-01T08:28:04;16.70;38.70
74617;DHT22;63123;50.906;4.198;2023-03-01T08:30:30;16.70;38.50
74617;DHT22;63123;50.906;4.198;2023-03-01T08:32:56;16.70;38.80
74617;DHT22;63123;50.906;4.198;2023-03-01T08:35:21;16.70;38.70
74617;DHT22;63123;50.906;4.198;2023-03-01T08:37:47;16.70;38.70
74617;DHT22;63123;50.906;4.198;2023-03-01T08:40:13;16.70;39.30
74617;DHT22;63123;50.906;4.198;2023-03-01T08:42:40;16.70;39.10
74617;DHT22;63123;50.906;4.198;2023-03-01T08:45:07;16.70;39.70
74617;DHT22;63123;50.906;4.198;2023-03-01T08:47:33;16.70;39.40
74617;DHT22;63123;50.906;4.198;2023-03-01T08:50:02;16.70;39.80
74617;DHT22;63123;50.906;4.198;2023-03-01T08:52:28;16.70;39.60
74617;DHT22;63123;50.906;4.198;2023-03-01T08:54:55;16.70;39.40
74617;DHT22;63123;50.906;4.198;2023-03-01T08:57:22;16.70;39.20
74617;DHT22;63123;50.906;4.198;2023-03-01T08:59:47;16.70;39.20
74617;DHT22;63123;50.906;4.198;2023-03-01T09:02:16;16.70;39.40
74617;DHT22;63123;50.906;4.198;2023-03-01T09:04:42;16.80;39.50
74617;DHT22;63123;50.906;4.198;2023-03-01T09:07:09;16.80;39.70
74617;DHT22;63123;50.906;4.198;2023-03-01T09:09:35;16.70;39.10
74617;DHT22;63123;50.906;4.198;2023-03-01T09:12:01;16.70;39.10
74617;DHT22;63123;50.906;4.198;2023-03-01T09:14:27;16.70;39.10
74617;DHT22;63123;50.906;4.198;2023-03-01T09:16:53;16.70;38.80
74617;DHT22;63123;50.906;4.198;2023-03-01T09:19:19;16.70;39.50
74617;DHT22;63123;50.906;4.198;2023-03-01T09:21:44;16.80;39.20
74617;DHT22;63123;50.906;4.198;2023-03-01T09:24:21;16.80;39.20
74617;DHT22;63123;50.906;4.198;2023-03-01T09:26:47;16.80;39.90
74617;DHT22;63123;50.906;4.198;2023-03-01T09:29:13;16.80;39.10
74617;DHT22;63123;50.906;4.198;2023-03-01T09:31:39;16.80;39.60
74617;DHT22;63123;50.906;4.198;2023-03-01T09:34:05;16.80;39.10
74617;DHT22;63123;50.906;4.198;2023-03-01T09:36:31;16.80;39.60
74617;DHT22;63123;50.906;4.198;2023-03-01T09:38:58;16.80;39.40
74617;DHT22;63123;50.906;4.198;2023-03-01T09:41:49;16.80;39.70
74617;DHT22;63123;50.906;4.198;2023-03-01T09:44:29;16.80;39.10
74617;DHT22;63123;50.906;4.198;2023-03-01T09:46:57;16.80;39.30
74617;DHT22;63123;50.906;4.198;2023-03-01T09:49:29;16.80;39.70
74617;DHT22;63123;50.906;4.198;2023-03-01T09:51:57;16.80;39.30
74617;DHT22;63123;50.906;4.198;2023-03-01T09:54:24;16.80;39.20
74617;DHT22;63123;50.906;4.198;2023-03-01T09:57:05;16.80;39.20
74617;DHT22;63123;50.906;4.198;2023-03-01T09:59:41;16.80;39.20
74617;DHT22;63123;50.906;4.198;2023-03-01T10:02:28;16.80;39.70
74617;DHT22;63123;50.906;4.198;2023-03-01T10:05:26;16.80;38.90
74617;DHT22;63123;50.906;4.198;2023-03-01T10:10:42;16.80;39.50
74617;DHT22;63123;50.906;4.198;2023-03-01T10:13:23;16.80;39.00
74617;DHT22;63123;50.906;4.198;2023-03-01T10:15:54;16.80;39.20
74617;DHT22;63123;50.906;4.198;2023-03-01T10:18:32;16.80;39.40
74617;DHT22;63123;50.906;4.198;2023-03-01T10:21:00;16.80;39.00
74617;DHT22;63123;50.906;4.198;2023-03-01T10:23:28;16.80;38.90
74617;DHT22;63123;50.906;4.198;2023-03-01T10:31:27;16.80;38.90
74617;DHT22;63123;50.906;4.198;2023-03-01T10:34:04;16.80;39.10
74617;DHT22;63123;50.906;4.198;2023-03-01T10:36:33;16.80;39.70
74617;DHT22;63123;50.906;4.198;2023-03-01T10:38:59;16.80;39.00
74617;DHT22;63123;50.906;4.198;2023-03-01T10:41:26;16.80;39.20
74617;DHT22;63123;50.906;4.198;2023-03-01T10:43:57;16.80;39.20
74617;DHT22;63123;50.906;4.198;2023-03-01T10:49:14;16.80;39.20
74617;DHT22;63123;50.906;4.198;2023-03-01T10:51:41;16.80;38.60
74617;DHT22;63123;50.906;4.198;2023-03-01T10:54:17;16.80;39.10
74617;DHT22;63123;50.906;4.198;2023-03-01T10:56:48;16.80;39.40
74617;DHT22;63123;50.906;4.198;2023-03-01T10:59:35;16.80;39.60
74617;DHT22;63123;50.906;4.198;2023-03-01T11:02:36;16.80;38.60
74617;DHT22;63123;50.906;4.198;2023-03-01T11:05:17;16.80;38.60
74617;DHT22;63123;50.906;4.198;2023-03-01T11:07:55;16.80;38.60
74617;DHT22;63123;50.906;4.198;2023-03-01T11:10:31;16.80;39.30
74617;DHT22;63123;50.906;4.198;2023-03-01T11:13:29;16.90;38.90
74617;DHT22;63123;50.906;4.198;2023-03-01T11:16:03;16.80;38.30
74617;DHT22;63123;50.906;4.198;2023-03-01T11:18:30;16.90;38.80
74617;DHT22;63123;50.906;4.198;2023-03-01T11:20:58;16.90;38.90
74617;DHT22;63123;50.906;4.198;2023-03-01T11:23:25;16.90;39.10
74617;DHT22;63123;50.906;4.198;2023-03-01T11:26:01;16.80;38.80
74617;DHT22;63123;50.906;4.198;2023-03-01T11:28:29;16.80;38.70
74617;DHT22;63123;50.906;4.198;2023-03-01T11:34:00;16.90;39.10
74617;DHT22;63123;50.906;4.198;2023-03-01T11:41:48;16.90;38.90
74617;DHT22;63123;50.906;4.198;2023-03-01T11:44:25;16.90;38.90
74617;DHT22;63123;50.906;4.198;2023-03-01T11:52:21;16.90;39.00
74617;DHT22;63123;50.906;4.198;2023-03-01T12:01:20;16.90;38.80
74617;DHT22;63123;50.906;4.198;2023-03-01T12:09:14;16.90;38.60
74617;DHT22;63123;50.906;4.198;2023-03-01T12:14:55;16.90;39.30
74617;DHT22;63123;50.906;4.198;2023-03-01T12:25:38;16.90;38.90
74617;DHT22;63123;50.906;4.198;2023-03-01T12:28:31;16.90;38.80
74617;DHT22;63123;50.906;4.198;2023-03-01T12:31:27;16.90;39.30
74617;DHT22;63123;50.906;4.198;2023-03-01T12:38:56;16.90;39.20
74617;DHT22;63123;50.906;4.198;2023-03-01T12:41:47;16.90;39.10
74617;DHT22;63123;50.906;4.198;2023-03-01T12:47:42;16.90;38.60
74617;DHT22;63123;50.906;4.198;2023-03-01T12:52:42;16.90;39.10
74617;DHT22;63123;50.906;4.198;2023-03-01T12:55:35;16.90;39.00
74617;DHT22;63123;50.906;4.198;2023-03-01T13:06:38;16.90;39.20
74617;DHT22;63123;50.906;4.198;2023-03-01T13:11:57;16.90;38.90
74617;DHT22;63123;50.906;4.198;2023-03-01T13:16:49;16.90;39.10
74617;DHT22;63123;50.906;4.198;2023-03-01T13:19:23;16.90;39.10
74617;DHT22;63123;50.906;4.198;2023-03-01T13:21:51;16.90;39.20
74617;DHT22;63123;50.906;4.198;2023-03-01T13:24:40;16.90;38.90
74617;DHT22;63123;50.906;4.198;2023-03-01T13:29:44;16.90;38.90
74617;DHT22;63123;50.906;4.198;2023-03-01T13:34:54;16.90;38.70
74617;DHT22;63123;50.906;4.198;2023-03-01T13:37:27;16.90;39.30
74617;DHT22;63123;50.906;4.198;2023-03-01T13:39:59;16.90;38.90
74617;DHT22;63123;50.906;4.198;2023-03-01T13:42:39;16.90;38.90
74617;DHT22;63123;50.906;4.198;2023-03-01T13:45:17;16.90;38.70
74617;DHT22;63123;50.906;4.198;2023-03-01T13:47:46;16.90;38.80
74617;DHT22;63123;50.906;4.198;2023-03-01T13:50:20;16.90;38.90
74617;DHT22;63123;50.906;4.198;2023-03-01T13:52:52;16.90;38.90
74617;DHT22;63123;50.906;4.198;2023-03-01T13:55:41;16.90;38.70
74617;DHT22;63123;50.906;4.198;2023-03-01T13:58:27;16.90;38.90
74617;DHT22;63123;50.906;4.198;2023-03-01T14:01:05;16.90;38.50
74617;DHT22;63123;50.906;4.198;2023-03-01T14:03:33;16.90;38.60
74617;DHT22;63123;50.906;4.198;2023-03-01T14:06:26;16.90;39.00
74617;DHT22;63123;50.906;4.198;2023-03-01T14:09:15;16.90;38.50
74617;DHT22;63123;50.906;4.198;2023-03-01T14:14:48;16.90;39.00
74617;DHT22;63123;50.906;4.198;2023-03-01T14:22:40;16.90;39.20
74617;DHT22;63123;50.906;4.198;2023-03-01T14:25:18;16.90;38.70
74617;DHT22;63123;50.906;4.198;2023-03-01T14:27:44;17.00;38.60
74617;DHT22;63123;50.906;4.198;2023-03-01T14:30:25;16.90;38.90
74617;DHT22;63123;50.906;4.198;2023-03-01T14:32:57;16.90;38.90
74617;DHT22;63123;50.906;4.198;2023-03-01T14:35:25;16.90;38.70
74617;DHT22;63123;50.906;4.198;2023-03-01T14:37:51;16.90;38.90
74617;DHT22;63123;50.906;4.198;2023-03-01T14:40:26;16.90;38.70
74617;DHT22;63123;50.906;4.198;2023-03-01T14:42:53;16.90;38.60
74617;DHT22;63123;50.906;4.198;2023-03-01T14:45:20;16.90;38.80
74617;DHT22;63123;50.906;4.198;2023-03-01T14:47:47;16.90;38.90
74617;DHT22;63123;50.906;4.198;2023-03-01T14:50:32;16.90;38.90
74617;DHT22;63123;50.906;4.198;2023-03-01T14:53:01;16.90;38.80
74617;DHT22;63123;50.906;4.198;2023-03-01T14:55:37;16.90;38.80
74617;DHT22;63123;50.906;4.198;2023-03-01T14:58:04;16.90;39.10
74617;DHT22;63123;50.906;4.198;2023-03-01T15:00:32;16.90;39.00
74617;DHT22;63123;50.906;4.198;2023-03-01T15:03:11;16.90;38.80
74617;DHT22;63123;50.906;4.198;2023-03-01T15:05:39;16.90;39.00
74617;DHT22;63123;50.906;4.198;2023-03-01T15:08:05;16.90;38.50
74617;DHT22;63123;50.906;4.198;2023-03-01T15:10:36;16.90;38.70
74617;DHT22;63123;50.906;4.198;2023-03-01T15:13:21;16.90;39.20
74617;DHT22;63123;50.906;4.198;2023-03-01T15:15:48;16.90;39.40
74617;DHT22;63123;50.906;4.198;2023-03-01T15:18:17;16.90;38.90
74617;DHT22;63123;50.906;4.198;2023-03-01T15:20:43;16.90;38.90
74617;DHT22;63123;50.906;4.198;2023-03-01T15:23:29;16.90;38.70
74617;DHT22;63123;50.906;4.198;2023-03-01T15:25:56;16.90;38.40
74617;DHT22;63123;50.906;4.198;2023-03-01T15:28:36;16.90;38.90
74617;DHT22;63123;50.906;4.198;2023-03-01T15:31:21;16.90;38.80
74617;DHT22;63123;50.906;4.198;2023-03-01T15:33:47;16.90;38.40
74617;DHT22;63123;50.906;4.198;2023-03-01T15:36:42;16.90;38.60
74617;DHT22;63123;50.906;4.198;2023-03-01T15:39:30;16.90;38.50
74617;DHT22;63123;50.906;4.198;2023-03-01T15:41:56;16.90;38.50
74617;DHT22;63123;50.906;4.198;2023-03-01T15:44:25;16.90;38.60
74617;DHT22;63123;50.906;4.198;2023-03-01T15:46:51;16.90;38.50
74617;DHT22;63123;50.906;4.198;2023-03-01T15:49:40;16.90;38.70
74617;DHT22;63123;50.906;4.198;2023-03-01T15:55:01;16.90;38.60
74617;DHT22;63123;50.906;4.198;2023-03-01T15:57:27;16.90;39.20
74617;DHT22;63123;50.906;4.198;2023-03-01T15:59:53;16.90;38.70
74617;DHT22;63123;50.906;4.198;2023-03-01T16:02:19;16.90;38.90
74617;DHT22;63123;50.906;4.198;2023-03-01T16:04:47;16.90;39.00
74617;DHT22;63123;50.906;4.198;2023-03-01T16:07:14;16.90;38.60
74617;DHT22;63123;50.906;4.198;2023-03-01T16:09:40;16.90;38.60
74617;DHT22;63123;50.906;4.198;2023-03-01T16:12:08;16.90;38.90
74617;DHT22;63123;50.906;4.198;2023-03-01T16:14:35;16.80;38.70
74617;DHT22;63123;50.906;4.198;2023-03-01T16:17:00;16.90;38.70
74617;DHT22;63123;50.906;4.198;2023-03-01T16:19:26;16.80;39.10
74617;DHT22;63123;50.906;4.198;2023-03-01T16:21:51;16.80;38.70
74617;DHT22;63123;50.906;4.198;2023-03-01T16:24:17;16.80;38.80
74617;DHT22;63123;50.906;4.198;2023-03-01T16:26:42;16.80;38.80
74617;DHT22;63123;50.906;4.198;2023-03-01T16:29:08;16.90;38.70
74617;DHT22;63123;50.906;4.198;2023-03-01T16:31:34;16.80;38.60
74617;DHT22;63123;50.906;4.198;2023-03-01T16:34:00;16.80;38.60
74617;DHT22;63123;50.906;4.198;2023-03-01T16:36:26;16.80;39.30
74617;DHT22;63123;50.906;4.198;2023-03-01T16:38:54;16.80;38.70
74617;DHT22;63123;50.906;4.198;2023-03-01T16:41:21;16.80;38.80
74617;DHT22;63123;50.906;4.198;2023-03-01T16:43:48;16.80;38.60
74617;DHT22;63123;50.906;4.198;2023-03-01T16:46:28;16.80;38.80
74617;DHT22;63123;50.906;4.198;2023-03-01T16:48:54;16.80;38.80
74617;DHT22;63123;50.906;4.198;2023-03-01T16:51:22;16.80;38.70
74617;DHT22;63123;50.906;4.198;2023-03-01T16:53:48;16.80;39.00
74617;DHT22;63123;50.906;4.198;2023-03-01T16:56:15;16.80;38.90
74617;DHT22;63123;50.906;4.198;2023-03-01T16:58:41;16.80;38.80
74617;DHT22;63123;50.906;4.198;2023-03-01T17:01:11;16.80;39.10
74617;DHT22;63123;50.906;4.198;2023-03-01T17:03:37;16.80;38.80
74617;DHT22;63123;50.906;4.198;2023-03-01T17:06:09;16.80;38.70
74617;DHT22;63123;50.906;4.198;2023-03-01T17:08:37;16.80;39.70
74617;DHT22;63123;50.906;4.198;2023-03-01T17:11:11;16.80;38.80
74617;DHT22;63123;50.906;4.198;2023-03-01T17:13:38;16.80;39.10
74617;DHT22;63123;50.906;4.198;2023-03-01T17:16:06;16.80;38.80
74617;DHT22;63123;50.906;4.198;2023-03-01T17:18:32;16.80;39.00